Time;durP1;ratioP1;P1;durP2;ratioP2;P2;SDS_P1;SDS_P2;PMS_P1;PMS_P2;Temp;Humidity;BMP_temperature;BMP_pressure;BME280_temperature;BME280_humidity;BME280_pressure;Samples;Min_cycle;Max_cycle;Signal;HPM_P1;HPM_P2
2021/04/08 00:02:22;;;;;;;4.47;2.92;;;;;;;2.64;72.78;99784.95;1685515;83;21171;-46
2021/04/08 00:04:49;;;;;;;4.53;3.65;;;;;;;2.63;72.72;99788.05;1685530;84;21189;-54
2021/04/08 00:07:19;;;;;;;6.00;3.37;;;;;;;2.64;72.69;99792.85;1695084;82;21217;-44
2021/04/08 00:09:46;;;;;;;6.25;3.37;;;;;;;2.62;72.69;99790.30;1683316;83;21201;-44
2021/04/08 00:12:14;;;;;;;5.08;2.80;;;;;;;2.62;72.69;99793.36;1694171;83;21531;-44
2021/04/08 00:14:42;;;;;;;5.10;3.45;;;;;;;2.60;72.75;99796.06;1689151;82;21187;-45
2021/04/08 00:18:42;;;;;;;8.68;6.80;;;;;;;2.67;72.71;99796.68;1876880;74;22132;-46
2021/04/08 00:21:10;;;;;;;6.80;5.05;;;;;;;2.64;72.56;99807.33;1862266;75;21568;-45
2021/04/08 00:23:38;;;;;;;4.47;3.65;;;;;;;2.65;72.56;99807.75;1861282;75;21195;-47
2021/04/08 00:26:06;;;;;;;5.47;2.95;;;;;;;2.65;72.52;99810.39;1868318;75;21149;-45
2021/04/08 00:28:34;;;;;;;5.72;4.33;;;;;;;2.62;72.48;99815.30;1812211;78;21148;-46
2021/04/08 00:31:02;;;;;;;6.40;3.40;;;;;;;2.63;72.42;99814.84;1786435;78;21139;-47
2021/04/08 00:33:29;;;;;;;6.25;3.47;;;;;;;2.63;72.37;99820.11;1795915;78;21171;-47
2021/04/08 00:35:57;;;;;;;4.80;3.75;;;;;;;2.63;72.40;99826.69;1799844;77;21137;-48
2021/04/08 00:38:25;;;;;;;6.20;3.40;;;;;;;2.64;72.37;99822.66;1777084;78;21128;-47
2021/04/08 00:40:53;;;;;;;5.20;3.02;;;;;;;2.63;72.27;99826.69;1804923;77;21110;-49
2021/04/08 00:43:21;;;;;;;5.37;3.83;;;;;;;2.63;72.28;99824.91;1780792;78;21221;-47
2021/04/08 00:45:48;;;;;;;5.22;3.45;;;;;;;2.63;72.19;99824.91;1793892;78;21160;-49
2021/04/08 00:48:17;;;;;;;5.03;3.25;;;;;;;2.62;72.15;99830.22;1790290;78;21164;-48
2021/04/08 00:50:46;;;;;;;5.62;3.50;;;;;;;2.61;72.26;99839.89;1774453;79;21693;-49
2021/04/08 00:53:15;;;;;;;5.58;3.67;;;;;;;2.64;72.29;99842.41;1810199;77;21132;-49
2021/04/08 00:55:44;;;;;;;6.40;4.60;;;;;;;2.64;72.13;99846.83;1780574;79;21134;-48
2021/04/08 00:58:13;;;;;;;4.72;3.60;;;;;;;2.64;72.06;99854.26;1749897;80;21139;-48
2021/04/08 01:00:43;;;;;;;5.80;3.95;;;;;;;2.63;71.97;99854.34;1793688;78;21166;-48
2021/04/08 01:03:14;;;;;;;5.03;3.45;;;;;;;2.63;72.07;99853.88;1784048;79;21148;-48
2021/04/08 01:05:41;;;;;;;4.67;3.30;;;;;;;2.63;72.01;99865.72;1784793;79;21178;-47
2021/04/08 01:08:11;;;;;;;6.67;3.98;;;;;;;2.64;72.03;99859.98;1775011;79;21161;-44
2021/04/08 01:10:40;;;;;;;8.60;4.50;;;;;;;2.63;71.97;99864.41;1771127;79;21112;-45
2021/04/08 01:13:11;;;;;;;7.58;3.65;;;;;;;2.62;72.08;99861.38;1779436;78;21158;-45
2021/04/08 01:15:40;;;;;;;;;;;;;;;2.63;72.06;99872.77;1762767;78;21159;-45
2021/04/08 01:18:30;;;;;;;10.82;7.80;;;;;;;2.62;71.96;99871.03;1777561;78;20453;-44
2021/04/08 01:21:38;;;;;;;6.80;5.35;;;;;;;2.60;72.01;99866.69;1769729;79;21164;-47
2021/04/08 01:24:23;;;;;;;5.90;4.00;;;;;;;2.63;72.10;99877.56;1805657;77;21148;-48
2021/04/08 01:27:29;;;;;;;6.05;4.12;;;;;;;2.64;71.95;99878.42;1757916;79;21174;-47
2021/04/08 01:30:38;;;;;;;4.45;3.35;;;;;;;2.63;71.83;99877.56;1770171;79;21140;-47
2021/04/08 01:33:09;;;;;;;7.67;3.95;;;;;;;2.61;71.73;99888.60;1773678;78;21378;-46
2021/04/08 01:35:37;;;;;;;8.95;4.28;;;;;;;2.57;71.74;99890.49;1789480;78;21132;-45
2021/04/08 01:38:13;;;;;;;6.53;4.08;;;;;;;2.55;71.75;99894.09;1800638;78;21228;-44
2021/04/08 01:40:41;;;;;;;5.95;3.67;;;;;;;2.53;71.78;99895.92;1800669;78;21141;-48
2021/04/08 01:43:08;;;;;;;5.58;4.28;;;;;;;2.52;71.86;99896.38;1794134;78;21160;-47
2021/04/08 01:45:36;;;;;;;7.25;4.08;;;;;;;2.53;71.98;99898.09;1801316;77;21436;-45
2021/04/08 01:48:05;;;;;;;7.17;4.87;;;;;;;2.53;71.92;99899.40;1791986;78;21568;-45
2021/04/08 01:50:33;;;;;;;5.53;4.30;;;;;;;2.51;71.82;99907.80;1777100;78;21530;-46
2021/04/08 01:53:01;;;;;;;7.37;4.95;;;;;;;2.49;71.90;99912.25;1783029;78;21168;-48
2021/04/08 01:55:30;;;;;;;6.62;4.67;;;;;;;2.50;71.83;99915.31;1789295;78;21408;-45
2021/04/08 01:57:58;;;;;;;6.37;4.42;;;;;;;2.50;71.76;99911.36;1775348;79;21149;-47
2021/04/08 02:00:25;;;;;;;8.45;4.58;;;;;;;2.49;71.93;99918.83;1811380;77;21129;-47
2021/04/08 02:02:55;;;;;;;5.85;4.47;;;;;;;2.50;72.11;99920.58;1786093;78;21144;-47
2021/04/08 02:05:25;;;;;;;7.50;5.22;;;;;;;2.49;72.12;99928.51;1782032;79;21192;-46
2021/04/08 02:07:54;;;;;;;7.53;4.65;;;;;;;2.49;72.12;99933.77;1786446;79;21190;-47
2021/04/08 02:10:22;;;;;;;6.85;4.55;;;;;;;2.49;72.04;99936.41;1774552;79;21133;-47
2021/04/08 02:12:50;;;;;;;9.18;4.67;;;;;;;2.48;71.94;99935.55;1771943;79;21569;-48
2021/04/08 02:15:19;;;;;;;6.28;4.58;;;;;;;2.46;71.86;99941.78;1774221;79;21125;-46
2021/04/08 02:17:49;;;;;;;8.53;4.85;;;;;;;2.45;71.73;99946.19;1790638;78;21810;-45
2021/04/08 02:20:19;;;;;;;6.15;4.83;;;;;;;2.43;71.66;99947.16;1794749;78;21510;-46
2021/04/08 02:22:48;;;;;;;6.20;4.35;;;;;;;2.43;71.58;99953.73;1803985;78;21169;-46
2021/04/08 02:25:16;;;;;;;7.62;4.42;;;;;;;2.42;71.59;99954.63;1804528;78;21143;-45
2021/04/08 02:27:44;;;;;;;7.90;5.25;;;;;;;2.42;71.55;99959.89;1793119;78;21145;-47
2021/04/08 02:30:15;;;;;;;8.18;5.40;;;;;;;2.42;71.49;99964.72;1788639;78;21683;-47
2021/04/08 02:32:42;;;;;;;7.92;5.67;;;;;;;2.41;71.35;99960.35;1784595;78;21925;-46
2021/04/08 02:35:14;;;;;;;6.85;5.05;;;;;;;2.38;71.24;99969.67;1784404;78;21141;-45
2021/04/08 02:37:42;;;;;;;;;;;;;;;2.37;71.13;99970.13;1780466;78;21187;-45
2021/04/08 02:40:11;;;;;;;5.87;4.15;;;;;;;2.36;71.13;99976.75;1772358;79;20559;-46
2021/04/08 02:42:39;;;;;;;17.90;13.53;;;;;;;2.37;71.13;99981.13;1771328;79;21574;-44
2021/04/08 02:45:09;;;;;;;9.43;6.90;;;;;;;2.37;71.06;99981.13;1771337;79;21137;-45
2021/04/08 02:47:38;;;;;;;8.20;6.53;;;;;;;2.34;71.09;99983.41;1777808;78;21590;-49
2021/04/08 02:50:08;;;;;;;7.75;6.12;;;;;;;2.34;71.16;99988.66;1774648;78;21621;-47
2021/04/08 02:52:53;;;;;;;9.13;6.12;;;;;;;2.35;71.15;99986.89;1773372;78;21163;-49
2021/04/08 02:55:35;;;;;;;8.18;5.62;;;;;;;2.35;71.16;99989.06;1772912;77;21136;-49
2021/04/08 02:58:04;;;;;;;8.38;5.58;;;;;;;2.36;71.18;99993.39;1700651;82;21964;-43
2021/04/08 03:00:37;;;;;;;10.78;6.47;;;;;;;2.38;71.10;100002.11;1709156;82;21477;-47
2021/04/08 03:03:07;;;;;;;8.25;6.53;;;;;;;2.37;71.02;99999.55;1725717;82;21152;-46
2021/04/08 03:05:40;;;;;;;8.58;6.60;;;;;;;2.36;70.95;100006.55;1682561;83;21687;-48
2021/04/08 03:08:09;;;;;;;9.33;6.72;;;;;;;2.34;70.91;100011.03;1684002;83;21534;-47
2021/04/08 03:10:37;;;;;;;7.00;5.62;;;;;;;2.31;70.88;100022.09;1648202;84;21572;-46
2021/04/08 03:13:04;;;;;;;12.53;6.53;;;;;;;2.30;70.78;100021.70;1693904;83;21401;-46
2021/04/08 03:15:34;;;;;;;10.48;6.70;;;;;;;2.26;70.72;100022.23;1688703;83;21188;-45
2021/04/08 03:18:15;;;;;;;9.15;6.60;;;;;;;2.24;70.70;100026.68;1667953;84;21296;-45
2021/04/08 03:20:50;;;;;;;8.45;5.75;;;;;;;2.23;70.75;100031.55;1683011;83;21165;-44
2021/04/08 03:23:44;;;;;;;9.75;5.95;;;;;;;2.25;70.80;100028.88;1795955;78;22959;-45
2021/04/08 03:26:14;;;;;;;10.28;7.40;;;;;;;2.19;70.80;100040.89;1745706;81;21208;-45
2021/04/08 03:28:41;;;;;;;8.18;6.47;;;;;;;2.17;70.78;100033.07;1717313;82;21164;-46
2021/04/08 03:31:09;;;;;;;12.80;7.70;;;;;;;2.14;70.74;100032.71;1727627;81;21193;-46
2021/04/08 03:33:36;;;;;;;11.12;7.15;;;;;;;2.13;70.72;100036.23;1718641;81;21204;-47
2021/04/08 03:36:05;;;;;;;8.30;7.35;;;;;;;2.11;70.74;100043.77;1722911;82;21156;-48
2021/04/08 03:38:33;;;;;;;10.15;6.55;;;;;;;2.11;70.71;100048.56;1721226;82;21182;-46
2021/04/08 03:41:00;;;;;;;8.88;6.60;;;;;;;2.10;70.57;100044.22;1712627;82;21617;-47
2021/04/08 03:43:28;;;;;;;10.82;6.85;;;;;;;2.09;70.52;100045.57;1717393;82;21184;-44
2021/04/08 03:46:00;;;;;;;11.33;7.28;;;;;;;2.08;70.56;100052.61;1715202;82;21161;-46
2021/04/08 03:48:28;;;;;;;14.38;7.70;;;;;;;2.08;70.51;100055.70;1714128;82;21193;-49
2021/04/08 03:50:56;;;;;;;13.00;8.28;;;;;;;2.08;70.47;100059.64;1717567;82;21422;-47
2021/04/08 03:53:24;;;;;;;9.95;7.45;;;;;;;2.09;70.41;100065.30;1695907;82;21600;-44
2021/04/08 03:55:51;;;;;;;12.13;7.58;;;;;;;2.07;70.40;100069.77;1715529;82;21614;-45
2021/04/08 03:58:20;;;;;;;10.63;6.78;;;;;;;2.09;70.35;100070.56;1725521;82;21254;-46
2021/04/08 04:00:47;;;;;;;11.10;7.80;;;;;;;2.10;70.31;100077.56;1710587;82;21156;-47
2021/04/08 04:03:15;;;;;;;10.70;7.62;;;;;;;2.10;70.36;100078.42;1711042;82;21569;-46
2021/04/08 04:05:43;;;;;;;12.37;6.90;;;;;;;2.12;70.33;100083.19;1723174;81;21176;-47
2021/04/08 04:08:11;;;;;;;10.93;6.85;;;;;;;2.13;70.21;100086.22;1719091;82;21201;-48
2021/04/08 04:10:39;;;;;;;9.30;6.62;;;;;;;2.15;70.09;100088.36;1711035;81;21201;-48
2021/04/08 04:13:09;;;;;;;10.75;7.28;;;;;;;2.16;70.09;100091.37;1710616;81;21137;-47
2021/04/08 04:15:38;;;;;;;9.20;6.75;;;;;;;2.19;69.97;100098.31;1702962;82;21161;-47
2021/04/08 04:18:06;;;;;;;8.98;6.47;;;;;;;2.19;69.74;100099.64;1737039;81;21134;-45
2021/04/08 04:20:35;;;;;;;9.38;6.83;;;;;;;2.19;69.63;100103.58;1746984;81;21585;-45
2021/04/08 04:23:03;;;;;;;14.35;6.30;;;;;;;2.19;69.63;100096.15;1730723;81;21157;-45
2021/04/08 04:25:31;;;;;;;8.40;6.15;;;;;;;2.20;69.57;100105.33;1732115;81;21436;-47
2021/04/08 04:27:59;;;;;;;9.40;6.40;;;;;;;2.22;69.46;100109.20;1742504;81;21197;-48
2021/04/08 04:30:27;;;;;;;10.45;6.83;;;;;;;2.25;69.48;100108.67;1734055;80;21161;-47
2021/04/08 04:32:55;;;;;;;9.83;6.40;;;;;;;2.29;69.41;100114.27;1700766;82;21800;-45
2021/04/08 04:35:23;;;;;;;9.05;6.90;;;;;;;2.30;69.24;100119.07;1737817;81;21574;-48
2021/04/08 04:37:52;;;;;;;10.93;6.92;;;;;;;2.32;69.28;100125.16;1716548;83;21191;-47
2021/04/08 04:40:19;;;;;;;8.38;6.58;;;;;;;2.36;69.31;100124.13;1688419;82;21181;-44
2021/04/08 04:42:47;;;;;;;11.22;7.78;;;;;;;2.38;69.33;100119.23;1740909;81;21254;-43
2021/04/08 04:45:15;;;;;;;10.38;7.35;;;;;;;2.41;69.32;100116.95;1750159;81;21605;-44
2021/04/08 04:47:43;;;;;;;11.85;7.30;;;;;;;2.45;69.45;100119.92;1745556;81;21138;-45
2021/04/08 04:50:12;;;;;;;8.90;7.08;;;;;;;2.46;69.40;100124.26;1747914;80;21149;-45
2021/04/08 04:52:40;;;;;;;9.00;6.97;;;;;;;2.51;69.43;100129.39;1724724;82;21160;-45
2021/04/08 04:55:09;;;;;;;11.03;6.70;;;;;;;2.56;69.30;100135.37;1722392;81;21430;-45
2021/04/08 04:57:36;;;;;;;10.60;7.42;;;;;;;2.60;69.26;100138.33;1703101;82;21574;-46
2021/04/08 05:00:06;;;;;;;11.68;7.25;;;;;;;2.64;69.13;100138.63;1707314;82;21163;-47
2021/04/08 05:02:34;;;;;;;10.85;7.12;;;;;;;2.67;69.01;100139.87;1706797;82;21736;-45
2021/04/08 05:05:03;;;;;;;12.90;8.20;;;;;;;2.71;68.82;100140.62;1717052;81;21644;-45
2021/04/08 05:07:31;;;;;;;11.10;7.10;;;;;;;2.73;68.69;100142.30;1706564;83;21163;-45
2021/04/08 05:09:58;;;;;;;9.03;7.03;;;;;;;2.76;68.66;100147.45;1728602;81;21161;-46
2021/04/08 05:12:26;;;;;;;10.18;6.95;;;;;;;2.80;68.53;100146.92;1706514;83;21189;-46
2021/04/08 05:14:54;;;;;;;10.78;7.10;;;;;;;2.88;68.73;100150.16;1722428;81;21205;-45
2021/04/08 05:17:21;;;;;;;10.58;7.83;;;;;;;2.95;68.83;100150.38;1707867;83;21157;-45
2021/04/08 05:19:51;;;;;;;9.53;7.28;;;;;;;3.03;68.87;100144.86;1710996;82;21160;-45
2021/04/08 05:22:18;;;;;;;10.55;7.15;;;;;;;3.09;68.83;100155.18;1724396;82;21667;-46
2021/04/08 05:24:46;;;;;;;10.50;8.08;;;;;;;3.13;68.78;100151.55;1713575;82;21542;-47
2021/04/08 05:27:14;;;;;;;10.70;7.45;;;;;;;3.19;68.67;100153.11;1708959;82;21165;-44
2021/04/08 05:29:41;;;;;;;11.70;8.25;;;;;;;3.21;68.27;100149.97;1706564;81;21168;-45
2021/04/08 05:32:09;;;;;;;8.83;6.75;;;;;;;3.22;67.94;100149.91;1737619;81;21164;-48
2021/04/08 05:34:38;;;;;;;10.53;7.58;;;;;;;3.25;67.87;100148.94;1717676;81;21168;-43
2021/04/08 05:37:05;;;;;;;9.30;7.47;;;;;;;3.29;67.83;100156.30;1722602;81;21168;-43
2021/04/08 05:39:34;;;;;;;9.93;7.90;;;;;;;3.31;67.52;100163.25;1726750;80;21172;-39
2021/04/08 05:42:02;;;;;;;9.48;7.55;;;;;;;3.34;67.61;100171.51;1738717;81;21169;-47
2021/04/08 05:44:30;;;;;;;9.48;7.78;;;;;;;3.38;67.79;100167.41;1739422;81;21173;-46
2021/04/08 05:46:59;;;;;;;9.20;7.00;;;;;;;3.43;68.03;100168.11;1708471;81;21720;-48
2021/04/08 05:49:27;;;;;;;12.55;8.23;;;;;;;3.47;67.80;100171.03;1738052;81;21165;-46
2021/04/08 05:51:55;;;;;;;9.50;7.55;;;;;;;3.53;67.60;100173.05;1703953;83;21176;-44
2021/04/08 05:54:22;;;;;;;11.03;7.47;;;;;;;3.57;67.64;100170.72;1713701;81;21162;-45
2021/04/08 05:56:50;;;;;;;9.48;7.40;;;;;;;3.62;67.61;100174.06;1712604;82;21149;-46
2021/04/08 05:59:17;;;;;;;13.18;8.85;;;;;;;3.63;67.20;100176.66;1708884;82;21136;-44
2021/04/08 06:01:46;;;;;;;9.98;7.55;;;;;;;3.65;67.24;100171.31;1739737;80;21192;-43
2021/04/08 06:04:14;;;;;;;11.63;8.20;;;;;;;3.71;67.71;100177.70;1709015;82;21214;-46
2021/04/08 06:06:42;;;;;;;9.70;7.90;;;;;;;3.79;67.86;100182.72;1702457;82;21525;-46
2021/04/08 06:09:09;;;;;;;10.05;7.75;;;;;;;3.86;67.81;100186.86;1708331;82;21744;-45
2021/04/08 06:11:38;;;;;;;9.68;7.70;;;;;;;3.94;67.17;100195.83;1707376;82;21182;-43
2021/04/08 06:14:06;;;;;;;13.58;8.30;;;;;;;3.96;67.23;100199.27;1712559;82;21169;-46
2021/04/08 06:16:33;;;;;;;12.07;8.95;;;;;;;3.99;67.26;100203.97;1712235;82;21144;-46
2021/04/08 06:19:03;;;;;;;8.48;7.30;;;;;;;4.03;67.04;100204.70;1715019;82;21671;-45
2021/04/08 06:21:32;;;;;;;11.33;8.18;;;;;;;4.04;66.92;100205.98;1714132;82;21210;-45
2021/04/08 06:23:59;;;;;;;11.28;8.40;;;;;;;4.05;66.89;100212.12;1710634;82;21188;-44
2021/04/08 06:26:27;;;;;;;10.70;7.90;;;;;;;4.08;66.93;100212.00;1711340;82;21169;-49
2021/04/08 06:28:55;;;;;;;12.45;8.58;;;;;;;4.08;66.69;100211.56;1716165;82;21158;-42
2021/04/08 06:31:23;;;;;;;10.35;8.23;;;;;;;4.11;66.87;100215.88;1709689;82;21586;-41
2021/04/08 06:33:51;;;;;;;11.20;7.92;;;;;;;4.12;66.79;100210.52;1717179;82;21153;-46
2021/04/08 06:36:20;;;;;;;9.58;8.03;;;;;;;4.15;66.71;100220.11;1713429;82;21172;-45
2021/04/08 06:38:49;;;;;;;11.48;7.65;;;;;;;4.21;66.58;100224.30;1709293;82;21180;-44
2021/04/08 06:41:18;;;;;;;9.93;7.87;;;;;;;4.27;66.83;100220.98;1712333;81;21784;-45
2021/04/08 06:43:46;;;;;;;10.15;8.35;;;;;;;4.36;66.91;100224.20;1713433;82;21577;-44
2021/04/08 06:46:16;;;;;;;11.97;8.60;;;;;;;4.43;67.06;100225.23;1717447;82;21167;-47
2021/04/08 06:49:34;;;;;;;9.95;8.68;;;;;;;4.48;66.66;100229.88;1719915;82;21165;-43
2021/04/08 06:52:02;;;;;;;11.12;7.87;;;;;;;4.54;67.01;100228.35;1708534;82;21121;-48
2021/04/08 06:54:30;;;;;;;13.65;9.40;;;;;;;4.65;66.12;100228.41;1715463;82;21523;-46
2021/04/08 06:56:57;;;;;;;13.32;9.48;;;;;;;4.66;65.71;100226.15;1710163;82;21208;-45
2021/04/08 06:59:25;;;;;;;12.55;9.90;;;;;;;4.63;65.44;100231.55;1707389;82;21165;-42
2021/04/08 07:01:53;;;;;;;13.83;10.20;;;;;;;4.64;65.54;100233.30;1714378;82;21521;-44
2021/04/08 07:04:20;;;;;;;10.95;9.40;;;;;;;4.64;65.57;100231.52;1714085;82;21148;-44
2021/04/08 07:06:49;;;;;;;11.15;8.45;;;;;;;4.65;65.61;100244.25;1718070;82;21642;-43
2021/04/08 07:09:17;;;;;;;12.33;9.20;;;;;;;4.65;65.89;100242.47;1693298;82;21187;-42
2021/04/08 07:11:44;;;;;;;13.20;9.40;;;;;;;4.65;65.57;100250.39;1737491;80;21648;-45
2021/04/08 07:14:12;;;;;;;13.58;10.25;;;;;;;4.63;65.41;100252.69;1720535;81;21528;-51
2021/04/08 07:16:40;;;;;;;13.13;9.93;;;;;;;4.62;65.47;100266.36;1719167;81;21195;-50
2021/04/08 07:19:08;;;;;;;11.97;9.75;;;;;;;4.62;65.53;100255.80;1713118;81;21157;-46
2021/04/08 07:21:38;;;;;;;19.55;10.13;;;;;;;4.62;65.25;100267.68;1724907;81;21185;-43
2021/04/08 07:24:20;;;;;;;11.33;10.05;;;;;;;4.64;65.12;100274.24;1726595;81;21181;-45
2021/04/08 07:27:00;;;;;;;14.80;10.20;;;;;;;4.65;65.29;100271.98;1704667;82;21183;-47
2021/04/08 07:29:57;;;;;;;11.57;8.95;;;;;;;4.71;65.57;100273.95;1693559;82;21601;-46
2021/04/08 07:32:33;;;;;;;10.53;9.28;;;;;;;4.82;65.31;100282.78;1708261;82;21183;-45
2021/04/08 07:35:06;;;;;;;12.13;9.93;;;;;;;4.90;64.88;100278.06;1707437;82;21176;-47
2021/04/08 07:37:35;;;;;;;11.45;9.70;;;;;;;4.99;64.74;100283.47;1700080;83;21194;-47
2021/04/08 07:40:19;;;;;;;11.25;9.30;;;;;;;5.04;64.54;100286.80;1712855;81;21199;-47
2021/04/08 07:42:47;;;;;;;12.35;8.85;;;;;;;5.10;64.00;100283.05;1706674;81;21250;-49
2021/04/08 07:45:32;;;;;;;12.82;8.70;;;;;;;5.17;63.80;100292.47;1708863;82;21142;-45
2021/04/08 07:48:02;;;;;;;10.78;8.18;;;;;;;5.28;63.77;100293.36;1713678;81;21150;-46
2021/04/08 07:50:31;;;;;;;10.45;9.08;;;;;;;5.36;63.55;100292.59;1717007;82;21175;-45
2021/04/08 07:52:59;;;;;;;11.03;9.38;;;;;;;5.45;63.61;100294.87;1721192;81;21209;-45
2021/04/08 07:55:35;;;;;;;13.83;8.78;;;;;;;5.54;63.61;100298.92;1712701;82;21160;-45
2021/04/08 07:58:13;;;;;;;10.72;9.63;;;;;;;5.58;63.38;100295.23;1717230;82;21167;-45
2021/04/08 08:00:52;;;;;;;12.73;10.20;;;;;;;5.61;62.46;100297.28;1710448;82;21166;-45
2021/04/08 08:03:28;;;;;;;9.83;8.20;;;;;;;5.59;62.12;100301.80;1712698;82;21173;-48
2021/04/08 08:05:59;;;;;;;12.47;10.05;;;;;;;5.58;62.63;100304.49;1713912;81;21162;-46
2021/04/08 08:08:41;;;;;;;;;;;;;;;5.62;62.27;100311.39;1746147;81;21160;-46
2021/04/08 08:11:13;;;;;;;12.93;9.90;;;;;;;5.61;61.96;100314.48;1740236;81;20184;-44
2021/04/08 08:13:52;;;;;;;13.78;9.85;;;;;;;5.62;62.18;100310.08;1745230;81;21137;-46
2021/04/08 08:16:25;;;;;;;13.13;9.88;;;;;;;5.56;62.04;100324.85;1719693;81;21177;-45
2021/04/08 08:18:55;;;;;;;12.30;10.38;;;;;;;5.46;61.62;100324.82;1718123;81;21150;-43
2021/04/08 08:21:40;;;;;;;11.12;10.03;;;;;;;5.37;61.64;100328.70;1736491;81;21146;-45
2021/04/08 08:24:13;;;;;;;11.05;9.83;;;;;;;5.37;62.77;100326.92;1737093;81;21141;-41
2021/04/08 08:26:43;;;;;;;10.50;8.88;;;;;;;5.46;62.48;100330.11;1712625;82;21193;-45
2021/04/08 08:32:11;;;;;;;10.90;9.25;;;;;;;5.66;62.56;100332.81;1804755;77;23118;-46
2021/04/08 08:34:40;;;;;;;9.88;7.75;;;;;;;5.68;61.68;100338.06;1764420;79;21417;-48
2021/04/08 08:37:15;;;;;;;10.10;8.28;;;;;;;5.72;61.51;100335.67;1766927;80;21149;-45
2021/04/08 08:39:45;;;;;;;11.35;8.58;;;;;;;5.77;60.97;100339.88;1716909;81;21185;-45
2021/04/08 08:42:17;;;;;;;10.00;8.20;;;;;;;5.76;59.97;100335.48;1735797;81;21168;-46
2021/04/08 08:44:45;;;;;;;9.58;8.15;;;;;;;5.71;59.80;100332.17;1703977;82;21571;-47
2021/04/08 08:47:22;;;;;;;10.20;8.00;;;;;;;5.72;59.42;100342.28;1712034;82;21137;-44
2021/04/08 08:49:54;;;;;;;7.95;7.08;;;;;;;5.74;59.36;100344.41;1716127;82;21188;-45
2021/04/08 08:52:27;;;;;;;10.23;7.85;;;;;;;5.78;59.45;100338.94;1705117;82;21172;-46
2021/04/08 08:54:54;;;;;;;11.40;7.70;;;;;;;5.90;59.31;100345.99;1687538;83;21921;-44
2021/04/08 08:57:23;;;;;;;9.50;7.28;;;;;;;6.00;59.07;100350.86;1698138;83;21716;-49
2021/04/08 08:59:51;;;;;;;8.45;7.55;;;;;;;6.07;58.35;100354.09;1696538;81;21751;-43
2021/04/08 09:02:20;;;;;;;8.03;7.22;;;;;;;6.05;57.42;100350.21;1699762;82;21185;-46
2021/04/08 09:04:48;;;;;;;10.68;7.97;;;;;;;6.02;57.04;100360.05;1698536;82;21181;-46
2021/04/08 09:07:16;;;;;;;10.05;6.80;;;;;;;5.97;57.66;100352.76;1697089;82;22308;-45
2021/04/08 09:12:22;;;;;;;9.15;6.45;;;;;;;6.04;57.78;100345.82;1799066;77;22563;-43
2021/04/08 09:14:50;;;;;;;8.53;6.87;;;;;;;6.09;57.00;100357.55;1768030;78;21185;-44
2021/04/08 09:17:43;;;;;;;9.20;7.22;;;;;;;6.20;56.41;100353.11;1770963;78;21122;-46
2021/04/08 09:20:14;;;;;;;11.25;6.80;;;;;;;6.22;55.80;100349.52;1721447;81;21171;-46
2021/04/08 09:23:11;;;;;;;8.53;6.10;;;;;;;6.24;55.54;100352.07;1738191;80;21177;-45
2021/04/08 09:25:54;;;;;;;8.43;5.55;;;;;;;6.25;54.64;100353.34;1738332;80;21173;-46
2021/04/08 09:28:30;;;;;;;6.08;5.25;;;;;;;6.31;55.09;100348.71;1736873;80;21169;-43
2021/04/08 09:33:48;;;;;;;6.42;5.45;;;;;;;6.46;52.18;100340.95;1734343;80;21143;-48
2021/04/08 09:36:26;;;;;;;7.03;5.58;;;;;;;6.49;52.46;100345.26;1740505;80;21137;-44
2021/04/08 09:39:05;;;;;;;6.67;5.10;;;;;;;6.57;51.23;100347.56;1740764;80;21923;-44
2021/04/08 09:41:57;;;;;;;8.03;5.45;;;;;;;6.64;51.84;100353.00;1736516;80;21142;-45
2021/04/08 09:44:25;;;;;;;7.75;6.12;;;;;;;6.75;51.83;100359.14;1738084;80;21370;-44
2021/04/08 09:47:00;;;;;;;7.92;5.60;;;;;;;6.78;49.99;100358.56;1739267;80;21137;-45
2021/04/08 09:49:43;;;;;;;6.03;4.65;;;;;;;6.75;50.70;100352.52;1737372;80;21220;-42
2021/04/08 09:52:11;;;;;;;7.80;5.53;;;;;;;6.77;50.50;100361.27;1737809;80;21161;-43
2021/04/08 09:54:55;;;;;;;7.42;5.65;;;;;;;6.82;50.57;100366.75;1757113;80;21153;-47
2021/04/08 09:57:41;;;;;;;8.05;5.83;;;;;;;6.86;51.19;100360.39;1758975;79;21106;-42
2021/04/08 10:00:14;;;;;;;7.55;5.00;;;;;;;6.94;50.34;100357.39;1761442;79;21140;-44
2021/04/08 10:02:59;;;;;;;7.92;6.00;;;;;;;7.03;49.14;100353.01;1707109;83;21183;-42
2021/04/08 10:05:37;;;;;;;9.35;6.28;;;;;;;7.09;49.61;100355.84;1706327;81;21126;-48
2021/04/08 10:08:06;;;;;;;8.43;5.17;;;;;;;7.12;48.33;100361.84;1699996;83;21169;-48
2021/04/08 10:10:42;;;;;;;7.42;5.25;;;;;;;7.07;47.89;100361.20;1699285;83;21143;-44
2021/04/08 10:13:22;;;;;;;6.17;4.67;;;;;;;7.00;47.85;100358.42;1750740;80;21146;-46
2021/04/08 10:15:54;;;;;;;7.05;5.00;;;;;;;7.01;48.25;100360.16;1752658;80;21661;-47
2021/04/08 10:18:28;;;;;;;;;;;;;;;7.09;47.71;100361.14;1754077;80;21685;-46
2021/04/08 10:21:02;;;;;;;7.12;4.87;;;;;;;7.17;48.84;100358.98;1752620;80;20146;-46
2021/04/08 10:23:43;;;;;;;4.97;4.35;;;;;;;7.26;48.10;100353.27;1700967;82;21156;-42
2021/04/08 10:26:19;;;;;;;6.33;5.30;;;;;;;7.32;46.61;100360.07;1754108;80;21142;-46
2021/04/08 10:28:56;;;;;;;7.22;4.87;;;;;;;7.37;45.82;100355.41;1807407;77;22925;-47
2021/04/08 10:31:31;;;;;;;6.97;4.97;;;;;;;7.31;45.12;100363.19;1752887;80;21565;-45
2021/04/08 10:34:07;;;;;;;5.75;4.35;;;;;;;7.31;46.37;100361.02;1744630;81;21698;-46
2021/04/08 10:36:43;;;;;;;7.60;4.30;;;;;;;7.32;47.04;100354.77;1751964;80;21164;-45
2021/04/08 10:39:17;;;;;;;5.58;4.22;;;;;;;7.39;45.74;100356.67;1752223;80;21752;-46
2021/04/08 10:42:09;;;;;;;5.50;4.22;;;;;;;7.41;45.30;100360.97;1748749;80;21117;-45
2021/04/08 10:44:47;;;;;;;6.72;4.20;;;;;;;7.41;43.82;100361.41;1748402;81;21644;-40
2021/04/08 10:47:20;;;;;;;5.20;4.05;;;;;;;7.37;44.17;100360.71;1753180;81;21160;-41
2021/04/08 10:49:54;;;;;;;3.72;3.00;;;;;;;7.41;45.25;100364.95;1752286;80;21457;-43
2021/04/08 10:52:37;;;;;;;5.60;2.72;;;;;;;7.52;42.30;100369.27;1749126;81;21143;-43
2021/04/08 10:55:11;;;;;;;5.10;3.40;;;;;;;7.59;40.79;100372.03;1753760;81;21169;-47
2021/04/08 10:57:41;;;;;;;5.40;3.65;;;;;;;7.62;41.41;100349.80;1753363;80;22014;-46
2021/04/08 11:00:11;;;;;;;5.67;4.03;;;;;;;7.64;41.96;100354.56;1756898;81;21129;-45
2021/04/08 11:02:42;;;;;;;5.70;3.58;;;;;;;7.65;42.46;100358.08;1751637;81;21386;-45
2021/04/08 11:05:21;;;;;;;;;;;;;;;7.57;42.70;100361.95;1754936;81;21680;-45
2021/04/08 11:07:52;;;;;;;4.62;3.27;;;;;;;7.49;43.30;100361.94;1752757;81;20203;-43
2021/04/08 11:10:26;;;;;;;6.65;3.75;;;;;;;7.44;43.50;100365.27;1753357;81;21298;-42
2021/04/08 11:12:57;;;;;;;6.80;3.72;;;;;;;7.46;44.25;100363.38;1754892;81;21146;-46
2021/04/08 11:15:32;;;;;;;5.42;2.95;;;;;;;7.51;43.59;100362.70;1754501;81;21135;-45
2021/04/08 11:18:09;;;;;;;5.50;3.05;;;;;;;7.53;43.15;100367.03;1752843;81;21157;-46
2021/04/08 11:21:10;;;;;;;5.35;3.30;;;;;;;7.62;42.90;100363.06;1753811;81;21117;-45
2021/04/08 11:24:49;;;;;;;6.85;3.42;;;;;;;7.73;41.78;100356.75;1595968;88;21593;-45
2021/04/08 11:30:08;;;;;;;5.25;4.08;;;;;;;7.77;43.32;100367.62;1805097;77;22904;-46
2021/04/08 11:32:49;;;;;;;5.80;4.20;;;;;;;7.49;43.55;100370.75;1807268;78;21113;-47
2021/04/08 11:39:32;;;;;;;6.78;4.05;;;;;;;7.27;43.75;100372.69;1809455;78;21109;-47
2021/04/08 11:42:22;;;;;;;6.95;4.47;;;;;;;7.05;44.65;100380.76;1805660;78;21108;-47
2021/04/08 11:44:52;;;;;;;6.58;4.65;;;;;;;6.96;44.97;100379.40;1803370;78;21156;-47
2021/04/08 11:47:21;;;;;;;5.83;3.70;;;;;;;6.96;44.91;100381.20;1804662;78;21105;-48
2021/04/08 11:49:54;;;;;;;5.20;4.17;;;;;;;6.99;45.46;100392.98;1803208;78;21098;-48
2021/04/08 11:52:27;;;;;;;6.25;4.35;;;;;;;7.07;45.33;100387.72;1773171;79;21116;-46
2021/04/08 11:55:05;;;;;;;7.65;4.70;;;;;;;7.20;46.28;100387.16;1735404;80;21151;-48
2021/04/08 11:57:33;;;;;;;6.40;3.47;;;;;;;7.32;46.37;100392.76;1726803;81;21129;-46
2021/04/08 12:00:11;;;;;;;6.12;4.03;;;;;;;7.45;46.77;100386.88;1709380;82;21485;-44
2021/04/08 12:02:41;;;;;;;7.70;4.15;;;;;;;7.55;46.40;100402.29;1727045;81;21141;-47
2021/04/08 12:05:10;;;;;;;4.75;3.72;;;;;;;7.64;46.14;100390.39;1700387;82;21166;-47
2021/04/08 12:07:49;;;;;;;6.80;4.07;;;;;;;7.75;47.18;100392.53;1729527;81;21153;-48
2021/04/08 12:10:27;;;;;;;7.35;4.95;;;;;;;7.89;47.27;100394.53;1704204;82;21192;-46
2021/04/08 12:13:03;;;;;;;5.92;4.28;;;;;;;8.03;46.99;100392.89;1722731;81;21551;-47
2021/04/08 12:15:45;;;;;;;5.78;4.22;;;;;;;8.18;46.76;100397.06;1735547;81;21139;-49